Sapucaia, Brazil
Current Conditions -  °F | °C
As of 5:00 AM on Tuesday 21 Oct 2014 (Local Time) from SBGL Reporting Station
Overcast Overcast  
Wind Chill: 70°   Ceiling: 1300
Heat Index: 70°   Visibility: 5mi
Dew Point: 66°   Wind: 1mph
Humidity: 88%   Direction: 170°S
Pressure: 30.03"   Gusts: NA
Location:  22°S, 42.91°W
Report Text: SBGL 210700Z 17001KT 8000 SCT007 BKN013 OVC025 21/19 Q1017
Loading
Personal Weather Stations






























Interactive Weather Map
Tropical Storm Tracking
New forecast layout! Learn more

10-Day Weather Forecast

Advertisements
Track Severe Weather on mobile